Time;durP1;ratioP1;P1;durP2;ratioP2;P2;SDS_P1;SDS_P2;PMS_P1;PMS_P2;Temp;Humidity;BMP_temperature;BMP_pressure;BME280_temperature;BME280_humidity;BME280_pressure;Samples;Min_cycle;Max_cycle;Signal;HPM_P1;HPM_P2
2024/01/31 00:01:33;;;;;;;10.68;6.53;;;8.00;99.90;;;;;;5074673;28;20043;-43
2024/01/31 00:03:59;;;;;;;11.82;5.88;;;8.00;99.90;;;;;;5069721;28;20020;-44
2024/01/31 00:06:25;;;;;;;9.82;6.20;;;8.00;99.90;;;;;;5070268;28;20024;-44
2024/01/31 00:08:50;;;;;;;8.68;6.07;;;8.00;99.90;;;;;;5070050;28;20027;-44
2024/01/31 00:11:16;;;;;;;10.93;6.68;;;7.90;99.90;;;;;;5069705;28;20037;-43
2024/01/31 00:13:42;;;;;;;7.70;5.20;;;7.90;99.90;;;;;;5069593;28;20027;-43
2024/01/31 00:16:07;;;;;;;8.35;5.13;;;7.90;99.90;;;;;;5071599;28;20099;-45
2024/01/31 00:18:33;;;;;;;7.97;5.32;;;7.90;99.90;;;;;;5072424;28;20362;-45
2024/01/31 00:20:59;;;;;;;8.05;5.20;;;7.90;99.90;;;;;;5069556;28;20111;-43
2024/01/31 00:23:24;;;;;;;8.45;4.95;;;7.80;99.90;;;;;;5069516;28;20096;-43
2024/01/31 00:25:51;;;;;;;6.13;4.88;;;7.90;99.90;;;;;;5069405;28;20047;-42
2024/01/31 00:28:17;;;;;;;6.97;4.38;;;7.90;99.90;;;;;;5074248;28;20383;-43
2024/01/31 00:30:42;;;;;;;7.82;4.68;;;7.80;99.90;;;;;;5069428;28;20028;-42
2024/01/31 00:33:08;;;;;;;7.50;4.97;;;7.80;99.90;;;;;;5070861;28;20131;-42
2024/01/31 00:35:33;;;;;;;7.68;4.30;;;7.80;99.90;;;;;;5071922;28;20474;-43
2024/01/31 00:38:00;;;;;;;6.40;4.30;;;7.80;99.90;;;;;;5073865;28;20060;-42
2024/01/31 00:40:25;;;;;;;7.65;3.85;;;7.80;99.90;;;;;;5069030;28;20153;-42
2024/01/31 00:42:51;;;;;;;6.90;3.85;;;7.80;99.90;;;;;;5068873;28;20016;-43
2024/01/31 00:45:16;;;;;;;4.75;3.78;;;7.80;99.90;;;;;;5072094;28;20020;-43
2024/01/31 00:47:43;;;;;;;6.45;3.60;;;7.80;99.90;;;;;;5070599;28;20079;-43
2024/01/31 00:50:11;;;;;;;7.93;3.20;;;7.80;99.90;;;;;;5069061;28;20031;-45
2024/01/31 00:52:36;;;;;;;4.80;2.30;;;7.80;99.90;;;;;;5068637;28;20431;-43
2024/01/31 00:55:03;;;;;;;3.40;2.40;;;7.80;99.90;;;;;;5067417;28;20029;-43
2024/01/31 00:57:28;;;;;;;3.70;2.50;;;7.70;99.90;;;;;;5068841;28;20020;-43
2024/01/31 00:59:54;;;;;;;2.30;1.73;;;7.70;99.90;;;;;;5069796;28;20441;-44
2024/01/31 01:02:20;;;;;;;1.35;1.25;;;7.70;99.90;;;;;;5072857;28;20019;-45
2024/01/31 01:04:45;;;;;;;2.40;1.45;;;7.70;99.90;;;;;;5073256;28;20417;-43
2024/01/31 01:07:12;;;;;;;4.78;1.67;;;7.70;99.90;;;;;;5068826;28;20020;-43
2024/01/31 01:09:37;;;;;;;4.80;1.40;;;7.60;99.90;;;;;;5069016;28;20065;-43
2024/01/31 01:12:03;;;;;;;2.60;1.30;;;7.50;99.90;;;;;;5068338;28;20021;-43
2024/01/31 01:14:28;;;;;;;1.50;1.40;;;7.50;99.90;;;;;;5068666;28;20367;-43
2024/01/31 01:16:54;;;;;;;1.63;1.20;;;7.40;99.90;;;;;;5068603;28;20087;-43
2024/01/31 01:19:21;;;;;;;1.98;1.17;;;7.40;99.90;;;;;;5068461;28;20020;-42
2024/01/31 01:21:47;;;;;;;1.67;1.25;;;7.40;99.90;;;;;;5068259;28;20557;-47
2024/01/31 01:24:12;;;;;;;2.47;1.48;;;7.30;99.90;;;;;;5068574;28;20036;-42
2024/01/31 01:26:41;;;;;;;2.20;1.80;;;7.30;99.90;;;;;;5068374;28;20024;-43
2024/01/31 01:29:07;;;;;;;3.65;1.33;;;7.30;99.90;;;;;;5070795;28;20103;-45
2024/01/31 01:31:33;;;;;;;9.35;1.92;;;7.30;99.90;;;;;;5070413;28;20104;-46
2024/01/31 01:34:01;;;;;;;5.25;2.22;;;7.30;99.90;;;;;;5067654;28;20484;-43
2024/01/31 01:36:27;;;;;;;2.53;1.52;;;7.30;99.90;;;;;;5067903;28;20367;-43
2024/01/31 01:38:53;;;;;;;4.68;1.40;;;7.30;99.90;;;;;;5067631;28;20419;-43
2024/01/31 01:41:18;;;;;;;3.00;1.40;;;7.30;99.90;;;;;;5067570;28;20053;-43
2024/01/31 01:43:44;;;;;;;2.17;1.63;;;7.30;99.90;;;;;;5068047;28;20054;-44
2024/01/31 01:46:15;;;;;;;1.85;1.42;;;7.30;99.90;;;;;;5068020;28;20028;-42
2024/01/31 01:48:44;;;;;;;2.67;1.52;;;7.30;99.90;;;;;;5070557;28;20116;-41
2024/01/31 01:51:15;;;;;;;1.98;1.35;;;7.30;99.90;;;;;;5072575;28;20036;-43
2024/01/31 01:53:41;;;;;;;3.42;1.52;;;7.30;99.90;;;;;;5068390;28;20017;-43
2024/01/31 01:56:08;;;;;;;4.00;1.40;;;7.30;99.90;;;;;;5067921;28;20105;-43
2024/01/31 01:58:36;;;;;;;4.63;1.30;;;7.30;99.90;;;;;;5070395;28;20386;-44
2024/01/31 02:01:02;;;;;;;2.45;1.35;;;7.20;99.90;;;;;;5071960;28;20245;-43
2024/01/31 02:03:30;;;;;;;1.85;1.15;;;7.20;99.90;;;;;;5067780;28;20113;-42
2024/01/31 02:06:00;;;;;;;2.88;1.27;;;7.20;99.90;;;;;;5062594;28;20405;-44
2024/01/31 02:08:29;;;;;;;1.73;1.30;;;7.30;99.90;;;;;;5071140;28;20020;-43
2024/01/31 02:10:56;;;;;;;2.53;1.15;;;7.30;99.90;;;;;;5063680;28;20021;-42
2024/01/31 02:13:22;;;;;;;4.93;1.30;;;7.20;99.90;;;;;;5067571;28;20598;-44
2024/01/31 02:15:55;;;;;;;2.63;1.17;;;7.20;99.90;;;;;;5071779;28;20048;-44
2024/01/31 02:18:28;;;;;;;1.48;1.25;;;7.20;99.90;;;;;;5070753;28;20024;-44
2024/01/31 02:20:54;;;;;;;3.30;1.25;;;7.20;99.90;;;;;;5068033;28;20175;-43
2024/01/31 02:23:20;;;;;;;2.28;1.33;;;7.20;99.90;;;;;;5071002;28;20024;-42
2024/01/31 02:25:46;;;;;;;4.13;1.70;;;7.10;99.90;;;;;;5067623;28;20424;-43
2024/01/31 02:28:11;;;;;;;3.17;1.50;;;7.10;99.90;;;;;;5067790;28;20020;-42
2024/01/31 02:30:37;;;;;;;1.55;1.40;;;7.10;99.90;;;;;;5063014;28;20078;-42
2024/01/31 02:33:03;;;;;;;3.47;1.73;;;7.10;99.90;;;;;;5067629;28;20027;-41
2024/01/31 02:35:32;;;;;;;3.72;1.38;;;7.10;99.90;;;;;;5068209;28;20504;-42
2024/01/31 02:37:57;;;;;;;2.63;1.80;;;7.10;99.90;;;;;;5063635;28;20454;-42
2024/01/31 02:40:23;;;;;;;3.13;1.92;;;7.00;99.90;;;;;;5067449;28;20075;-44
2024/01/31 02:42:49;;;;;;;3.80;1.42;;;7.00;99.90;;;;;;5070229;28;20024;-42
2024/01/31 02:45:14;;;;;;;3.88;1.52;;;7.00;99.90;;;;;;5067667;28;20385;-42
2024/01/31 02:47:40;;;;;;;5.03;1.95;;;7.00;99.90;;;;;;5067457;28;20024;-42
2024/01/31 02:50:06;;;;;;;2.72;1.65;;;6.90;99.90;;;;;;5067481;28;20024;-44
2024/01/31 02:52:31;;;;;;;5.85;1.75;;;6.90;99.90;;;;;;5067349;28;20367;-45
2024/01/31 02:54:58;;;;;;;2.28;1.50;;;6.90;99.90;;;;;;5067098;28;20108;-46
2024/01/31 02:57:24;;;;;;;2.05;1.80;;;6.90;99.90;;;;;;5067004;28;20517;-43
2024/01/31 02:59:50;;;;;;;1.77;1.50;;;6.90;99.90;;;;;;5068827;28;20460;-43
2024/01/31 03:02:17;;;;;;;4.35;1.80;;;6.80;99.90;;;;;;5070269;28;20044;-43
2024/01/31 03:04:43;;;;;;;2.70;1.75;;;6.80;99.90;;;;;;5071235;28;20021;-44
2024/01/31 03:07:10;;;;;;;2.00;1.80;;;6.80;99.90;;;;;;5072494;28;20481;-42
2024/01/31 03:09:35;;;;;;;3.45;1.52;;;6.80;99.90;;;;;;5070956;28;20513;-44
2024/01/31 03:12:04;;;;;;;4.40;1.90;;;6.80;99.90;;;;;;5070163;28;20025;-43
2024/01/31 03:14:36;;;;;;;3.17;1.88;;;6.80;99.90;;;;;;5070584;28;20016;-42
2024/01/31 03:17:02;;;;;;;5.00;1.70;;;6.80;99.90;;;;;;5068016;28;20148;-46
2024/01/31 03:19:29;;;;;;;8.10;1.70;;;6.70;99.90;;;;;;5068966;28;20045;-44
2024/01/31 03:21:55;;;;;;;2.58;1.80;;;6.70;99.90;;;;;;5069382;28;20635;-43
2024/01/31 03:24:23;;;;;;;2.75;1.48;;;6.70;99.90;;;;;;5071167;28;20103;-43
2024/01/31 03:26:49;;;;;;;1.75;1.40;;;6.70;99.90;;;;;;5070639;28;20028;-42
2024/01/31 03:29:15;;;;;;;4.43;1.80;;;6.60;99.90;;;;;;5070846;28;20021;-46
2024/01/31 03:31:40;;;;;;;3.40;1.70;;;6.60;99.90;;;;;;5070413;28;20149;-42
2024/01/31 03:34:06;;;;;;;3.40;2.30;;;6.50;99.90;;;;;;5070558;28;20165;-42
2024/01/31 03:36:33;;;;;;;3.17;1.35;;;6.50;99.90;;;;;;5072962;28;20040;-43
2024/01/31 03:38:59;;;;;;;4.97;1.67;;;6.40;99.90;;;;;;5073196;28;20162;-42
2024/01/31 03:41:26;;;;;;;4.13;1.70;;;6.40;99.90;;;;;;5070184;28;20116;-42
2024/01/31 03:43:52;;;;;;;5.55;1.67;;;6.30;99.90;;;;;;5068751;28;20020;-43
2024/01/31 03:46:17;;;;;;;2.50;1.45;;;6.20;99.90;;;;;;5070054;28;20223;-42
2024/01/31 03:48:43;;;;;;;3.95;1.50;;;6.20;99.90;;;;;;5071764;28;20092;-42
2024/01/31 03:51:22;;;;;;;2.28;1.83;;;6.10;99.90;;;;;;5068744;28;20029;-41
2024/01/31 03:53:48;;;;;;;3.42;1.80;;;6.00;99.90;;;;;;5068627;28;20032;-43
2024/01/31 03:56:15;;;;;;;2.65;1.80;;;6.00;99.90;;;;;;5069800;28;20394;-43
2024/01/31 03:58:41;;;;;;;6.00;1.90;;;6.00;99.90;;;;;;5069979;28;20099;-42
2024/01/31 04:01:07;;;;;;;4.05;2.35;;;6.00;99.90;;;;;;5069670;28;20563;-43
2024/01/31 04:03:34;;;;;;;3.92;2.20;;;6.00;99.90;;;;;;5072099;28;20092;-43
2024/01/31 04:05:59;;;;;;;2.88;2.00;;;5.90;99.90;;;;;;5072768;28;20104;-43
2024/01/31 04:08:25;;;;;;;4.22;2.85;;;5.90;99.90;;;;;;5072378;28;20112;-43
2024/01/31 04:10:53;;;;;;;4.70;1.83;;;5.90;99.90;;;;;;5070025;28;20093;-42
2024/01/31 04:13:19;;;;;;;5.57;2.42;;;5.90;99.90;;;;;;5069436;28;20472;-45
2024/01/31 04:15:45;;;;;;;4.60;2.17;;;5.90;99.90;;;;;;5072335;28;20024;-44
2024/01/31 04:18:11;;;;;;;3.85;1.98;;;5.90;99.90;;;;;;5079740;28;20025;-44
2024/01/31 04:20:40;;;;;;;5.57;1.83;;;5.90;99.90;;;;;;5071585;28;20485;-43
2024/01/31 04:23:07;;;;;;;4.82;1.88;;;5.90;99.90;;;;;;5070990;28;20043;-43
2024/01/31 04:25:34;;;;;;;2.50;1.65;;;5.90;99.90;;;;;;5071181;28;20542;-44
2024/01/31 04:28:00;;;;;;;2.88;1.73;;;5.90;99.90;;;;;;5070044;28;20035;-42
2024/01/31 04:30:25;;;;;;;5.65;1.90;;;5.90;99.90;;;;;;5071080;28;20107;-44
2024/01/31 04:32:51;;;;;;;4.82;1.80;;;5.90;99.90;;;;;;5073206;28;20070;-43
2024/01/31 04:35:17;;;;;;;3.53;1.50;;;5.90;99.90;;;;;;5071072;28;20107;-44
2024/01/31 04:37:42;;;;;;;3.83;2.17;;;6.00;99.90;;;;;;5073337;28;20104;-45
2024/01/31 04:40:08;;;;;;;4.25;1.77;;;5.90;99.90;;;;;;5070846;28;20432;-45
2024/01/31 04:42:34;;;;;;;1.95;1.55;;;6.00;99.90;;;;;;5070411;28;20028;-45
2024/01/31 04:45:00;;;;;;;3.42;2.00;;;5.90;99.90;;;;;;5074005;28;20078;-47
2024/01/31 04:47:26;;;;;;;3.38;2.17;;;5.90;99.90;;;;;;5070272;28;20020;-46
2024/01/31 04:49:52;;;;;;;3.60;1.60;;;5.90;99.90;;;;;;5072722;28;20032;-46
2024/01/31 04:52:18;;;;;;;3.05;1.77;;;5.80;99.90;;;;;;5070685;28;20036;-46
2024/01/31 04:54:43;;;;;;;3.20;1.70;;;5.90;99.90;;;;;;5074063;28;20016;-43
2024/01/31 04:57:09;;;;;;;6.28;2.10;;;5.80;99.90;;;;;;5070462;28;20134;-43
2024/01/31 04:59:42;;;;;;;2.53;1.70;;;5.80;99.90;;;;;;5070084;28;20056;-43
2024/01/31 05:02:08;;;;;;;11.63;1.77;;;5.80;99.90;;;;;;5070596;28;20407;-44
2024/01/31 05:04:34;;;;;;;1.90;1.30;;;5.80;99.90;;;;;;5068942;28;20021;-42
2024/01/31 05:06:59;;;;;;;3.08;1.67;;;5.80;99.90;;;;;;5069168;28;20028;-44
2024/01/31 05:09:25;;;;;;;2.67;1.55;;;5.70;99.90;;;;;;5070217;28;20020;-43
2024/01/31 05:11:51;;;;;;;2.65;1.65;;;5.70;99.90;;;;;;5070103;28;20115;-45
2024/01/31 05:14:17;;;;;;;4.90;1.38;;;5.70;99.90;;;;;;5070237;28;20021;-43
2024/01/31 05:16:43;;;;;;;5.10;1.40;;;5.70;99.90;;;;;;5072175;28;20105;-42
2024/01/31 05:19:12;;;;;;;8.27;1.70;;;5.70;99.90;;;;;;5070227;28;20465;-44
2024/01/31 05:21:45;;;;;;;1.85;1.38;;;5.70;99.90;;;;;;5069110;28;20029;-42
2024/01/31 05:24:10;;;;;;;3.15;1.30;;;5.70;99.90;;;;;;5070341;28;20017;-42
2024/01/31 05:26:36;;;;;;;3.53;1.50;;;5.70;99.90;;;;;;5070234;28;20024;-44
2024/01/31 05:29:01;;;;;;;1.83;1.25;;;5.70;99.90;;;;;;5068753;28;20509;-46
2024/01/31 05:31:27;;;;;;;2.33;1.10;;;5.70;99.90;;;;;;5069905;28;20033;-43
2024/01/31 05:33:52;;;;;;;1.30;1.20;;;5.70;99.90;;;;;;5070029;28;20033;-43
2024/01/31 05:36:18;;;;;;;4.13;1.42;;;5.60;99.90;;;;;;5070238;28;20020;-42
2024/01/31 05:38:43;;;;;;;2.28;1.40;;;5.60;99.90;;;;;;5069997;28;20504;-43
2024/01/31 05:41:10;;;;;;;1.77;1.15;;;5.60;99.90;;;;;;5070069;28;20043;-44
2024/01/31 05:43:36;;;;;;;5.25;1.77;;;5.70;99.90;;;;;;5069445;28;20110;-45
2024/01/31 05:46:02;;;;;;;2.05;1.08;;;5.70;99.90;;;;;;5070147;28;20024;-42
2024/01/31 05:48:27;;;;;;;2.75;1.60;;;5.60;99.90;;;;;;5071547;28;20474;-43
2024/01/31 05:50:53;;;;;;;2.25;1.23;;;5.60;99.90;;;;;;5069836;28;20029;-43
2024/01/31 05:53:18;;;;;;;2.63;1.17;;;5.60;99.90;;;;;;5069417;28;20028;-43
2024/01/31 05:55:44;;;;;;;1.85;1.40;;;5.70;99.90;;;;;;5069676;28;20016;-44
2024/01/31 05:58:09;;;;;;;2.08;1.00;;;5.60;99.90;;;;;;5071227;28;20025;-45
2024/01/31 06:00:35;;;;;;;2.72;0.90;;;5.70;99.90;;;;;;5069579;28;20036;-43
2024/01/31 06:03:01;;;;;;;1.73;1.08;;;5.70;99.90;;;;;;5069709;28;20031;-43
2024/01/31 06:05:26;;;;;;;2.65;1.27;;;5.60;99.90;;;;;;5069573;28;20029;-43
2024/01/31 06:07:52;;;;;;;4.13;1.42;;;5.60;99.90;;;;;;5069699;28;20081;-44
2024/01/31 06:10:19;;;;;;;0.93;0.70;;;5.70;99.90;;;;;;5069640;28;20021;-43
2024/01/31 06:12:45;;;;;;;3.85;1.58;;;5.70;99.90;;;;;;5068924;28;20025;-44
2024/01/31 06:15:10;;;;;;;1.17;0.90;;;5.70;99.90;;;;;;5068209;28;20036;-48
2024/01/31 06:17:37;;;;;;;0.85;0.77;;;5.60;99.90;;;;;;5068444;28;20033;-43
2024/01/31 06:20:04;;;;;;;2.05;0.90;;;5.70;99.90;;;;;;5068989;28;20158;-43
2024/01/31 06:22:30;;;;;;;0.90;0.82;;;5.60;99.90;;;;;;5068127;28;20070;-42
2024/01/31 06:24:56;;;;;;;1.60;1.30;;;5.60;99.90;;;;;;5068901;28;20092;-42
2024/01/31 06:27:21;;;;;;;1.50;0.90;;;5.70;99.90;;;;;;5068099;28;20390;-44
2024/01/31 06:29:47;;;;;;;1.95;1.00;;;5.70;99.90;;;;;;5070996;28;20122;-42
2024/01/31 06:32:20;;;;;;;2.83;0.98;;;5.70;99.90;;;;;;5067918;28;20017;-46
2024/01/31 06:34:46;;;;;;;0.85;0.80;;;5.70;99.90;;;;;;5071822;28;20418;-43
2024/01/31 06:37:12;;;;;;;1.67;1.00;;;5.70;99.90;;;;;;5072354;28;20093;-44
2024/01/31 06:39:37;;;;;;;2.80;0.85;;;5.60;99.90;;;;;;5071908;28;20029;-43
2024/01/31 06:42:03;;;;;;;2.60;1.27;;;5.70;99.90;;;;;;5072316;28;20880;-44
2024/01/31 06:44:29;;;;;;;1.48;1.10;;;5.70;99.90;;;;;;5073998;28;20049;-44
2024/01/31 06:46:54;;;;;;;2.80;0.80;;;5.70;99.90;;;;;;5072163;28;20009;-44
2024/01/31 06:49:20;;;;;;;1.27;0.75;;;5.70;99.90;;;;;;5073797;28;20059;-45
2024/01/31 06:51:46;;;;;;;2.00;1.02;;;5.70;99.90;;;;;;5072252;28;20044;-43
2024/01/31 06:54:12;;;;;;;3.53;0.90;;;5.70;99.90;;;;;;5071885;28;20127;-43
2024/01/31 06:56:37;;;;;;;1.52;0.80;;;5.70;99.90;;;;;;5071495;28;20029;-42
2024/01/31 06:59:03;;;;;;;1.83;1.00;;;5.70;99.90;;;;;;5071569;28;20089;-44
2024/01/31 07:01:29;;;;;;;1.23;0.90;;;5.70;99.90;;;;;;5071013;28;20500;-42
2024/01/31 07:03:54;;;;;;;2.20;1.02;;;5.60;99.90;;;;;;5071170;28;20025;-43
2024/01/31 07:06:20;;;;;;;1.05;0.68;;;5.60;99.90;;;;;;5071747;28;20175;-43
2024/01/31 07:08:45;;;;;;;2.65;1.10;;;5.60;99.90;;;;;;5071425;28;20099;-43
2024/01/31 07:11:11;;;;;;;2.80;0.80;;;5.60;99.90;;;;;;5071449;28;20049;-43
2024/01/31 07:13:39;;;;;;;1.27;0.70;;;5.60;99.90;;;;;;5070282;28;20636;-44
2024/01/31 07:16:09;;;;;;;3.35;1.20;;;5.60;99.90;;;;;;5071621;28;20029;-42
2024/01/31 07:18:41;;;;;;;1.45;1.00;;;5.60;99.90;;;;;;5071776;28;20029;-43
2024/01/31 07:21:08;;;;;;;3.55;0.90;;;5.60;99.90;;;;;;5071889;28;20040;-44
2024/01/31 07:23:35;;;;;;;2.78;0.90;;;5.60;99.90;;;;;;5071852;28;20021;-43
2024/01/31 07:26:00;;;;;;;1.30;0.90;;;5.60;99.90;;;;;;5071718;28;20363;-44
2024/01/31 07:28:26;;;;;;;2.20;0.80;;;5.50;99.90;;;;;;5071672;28;20085;-43
2024/01/31 07:30:52;;;;;;;2.05;0.95;;;5.50;99.90;;;;;;5071907;28;20067;-44
2024/01/31 07:33:19;;;;;;;2.88;1.00;;;5.60;99.90;;;;;;5071751;28;20024;-44
2024/01/31 07:35:44;;;;;;;3.72;0.90;;;5.50;99.90;;;;;;5071858;28;20044;-43
2024/01/31 07:38:10;;;;;;;4.32;1.05;;;5.50;99.90;;;;;;5070795;28;20033;-44
2024/01/31 07:40:36;;;;;;;3.13;1.30;;;5.40;99.90;;;;;;5071502;28;20620;-44
2024/01/31 07:43:01;;;;;;;4.07;1.52;;;5.40;99.90;;;;;;5070757;28;20017;-42
2024/01/31 07:45:27;;;;;;;4.65;1.30;;;5.40;99.90;;;;;;5070633;28;20055;-43
2024/01/31 07:47:53;;;;;;;1.75;1.33;;;5.40;99.90;;;;;;5071520;28;20044;-44
2024/01/31 07:50:19;;;;;;;4.95;1.40;;;5.40;99.90;;;;;;5071222;28;20090;-43
2024/01/31 07:52:44;;;;;;;4.47;1.50;;;5.40;99.90;;;;;;5070276;28;20032;-44
2024/01/31 07:55:11;;;;;;;4.60;1.90;;;5.40;99.90;;;;;;5069127;28;20111;-43
2024/01/31 07:57:36;;;;;;;7.75;1.95;;;5.40;99.90;;;;;;5067380;28;20067;-43
2024/01/31 08:00:06;;;;;;;5.55;1.58;;;5.40;99.90;;;;;;5068773;28;20048;-43
2024/01/31 08:02:32;;;;;;;3.78;1.50;;;5.30;99.90;;;;;;5068257;28;20111;-44
2024/01/31 08:04:57;;;;;;;4.30;1.70;;;5.30;99.90;;;;;;5068883;28;20107;-43
2024/01/31 08:07:24;;;;;;;2.40;1.70;;;5.40;99.90;;;;;;5068739;28;20493;-43
2024/01/31 08:09:49;;;;;;;7.05;1.80;;;5.40;99.90;;;;;;5068931;28;20287;-45
2024/01/31 08:12:15;;;;;;;7.65;2.70;;;5.40;99.90;;;;;;5068605;28;20085;-44
2024/01/31 08:14:41;;;;;;;2.72;2.00;;;5.40;99.90;;;;;;5069046;28;20028;-46
2024/01/31 08:17:07;;;;;;;4.43;1.70;;;5.40;99.90;;;;;;5069149;28;20021;-42
2024/01/31 08:19:34;;;;;;;4.35;2.00;;;5.40;99.90;;;;;;5068878;28;20028;-43
2024/01/31 08:21:59;;;;;;;7.03;2.42;;;5.40;99.90;;;;;;5067809;28;20020;-44
2024/01/31 08:24:25;;;;;;;6.63;1.90;;;5.40;99.90;;;;;;5069486;28;20024;-44
2024/01/31 08:26:51;;;;;;;4.93;1.63;;;5.40;99.90;;;;;;5068494;28;20107;-42
2024/01/31 08:29:17;;;;;;;3.72;1.83;;;5.40;99.90;;;;;;5064996;28;20658;-45
2024/01/31 08:31:42;;;;;;;3.33;1.75;;;5.40;99.90;;;;;;5067742;28;20029;-44
2024/01/31 08:34:09;;;;;;;7.45;1.88;;;5.40;99.90;;;;;;5068551;28;20082;-43
2024/01/31 08:36:35;;;;;;;4.68;2.00;;;5.40;99.90;;;;;;5067716;28;20032;-43
2024/01/31 08:39:01;;;;;;;2.13;1.40;;;5.40;99.90;;;;;;5066327;28;20398;-42
2024/01/31 08:41:26;;;;;;;2.70;1.45;;;5.40;99.90;;;;;;5066554;28;20240;-43
2024/01/31 08:43:52;;;;;;;3.85;1.83;;;5.50;99.90;;;;;;5068885;28;20033;-45
2024/01/31 08:46:17;;;;;;;7.25;1.85;;;5.50;99.90;;;;;;5069190;28;20025;-43
2024/01/31 08:48:43;;;;;;;6.63;2.28;;;5.50;99.90;;;;;;5068222;28;20220;-43
2024/01/31 08:51:09;;;;;;;4.13;1.60;;;5.50;99.90;;;;;;5066907;28;20100;-44
2024/01/31 08:53:34;;;;;;;4.38;2.20;;;5.50;99.90;;;;;;5066527;28;20383;-43
2024/01/31 08:56:00;;;;;;;4.43;1.73;;;5.50;99.90;;;;;;5068211;28;20052;-45
2024/01/31 08:58:26;;;;;;;7.22;2.05;;;5.50;99.90;;;;;;5076231;28;20465;-43
2024/01/31 09:00:52;;;;;;;4.40;1.60;;;5.50;99.90;;;;;;5076760;28;20033;-43
2024/01/31 09:03:18;;;;;;;5.32;1.73;;;5.60;99.90;;;;;;5066200;28;20025;-43
2024/01/31 09:05:43;;;;;;;4.90;1.38;;;5.60;99.90;;;;;;5075291;28;20382;-43
2024/01/31 09:08:09;;;;;;;3.42;1.42;;;5.50;99.90;;;;;;5068403;28;20118;-45
2024/01/31 09:10:34;;;;;;;1.83;1.17;;;5.60;99.90;;;;;;5067992;28;20020;-44
2024/01/31 09:13:00;;;;;;;3.38;1.10;;;5.50;99.90;;;;;;5068095;28;20060;-44
2024/01/31 09:15:25;;;;;;;11.77;1.38;;;5.50;99.90;;;;;;5068142;28;20020;-45
2024/01/31 09:17:52;;;;;;;1.15;0.93;;;5.60;99.90;;;;;;5086036;28;20479;-46
2024/01/31 09:20:18;;;;;;;6.05;1.05;;;5.50;99.90;;;;;;5073064;28;20021;-43
2024/01/31 09:22:43;;;;;;;3.38;1.02;;;5.50;99.90;;;;;;5067538;28;20078;-47
2024/01/31 09:25:14;;;;;;;2.72;1.05;;;5.50;99.90;;;;;;5075837;28;20024;-43
2024/01/31 09:27:40;;;;;;;3.17;1.05;;;5.50;99.90;;;;;;5075436;28;20031;-43
2024/01/31 09:30:07;;;;;;;4.47;1.20;;;5.50;99.90;;;;;;5068143;28;20025;-43
2024/01/31 09:32:33;;;;;;;3.13;1.02;;;5.50;99.90;;;;;;5075498;28;20035;-43
2024/01/31 09:34:58;;;;;;;2.75;1.23;;;5.50;99.90;;;;;;5067063;28;20032;-43
2024/01/31 09:37:24;;;;;;;2.00;1.50;;;5.50;99.90;;;;;;5075055;28;20184;-44
2024/01/31 09:39:54;;;;;;;4.65;2.10;;;5.50;99.90;;;;;;5067542;28;20067;-44
2024/01/31 09:42:19;;;;;;;6.88;2.13;;;5.50;99.90;;;;;;5067488;28;20017;-44
2024/01/31 09:44:45;;;;;;;3.45;1.90;;;5.50;99.90;;;;;;5067747;28;20074;-48
2024/01/31 09:47:12;;;;;;;5.38;2.05;;;5.50;99.90;;;;;;5075168;28;20087;-47
2024/01/31 09:49:38;;;;;;;4.00;1.75;;;5.50;99.90;;;;;;5067625;28;20044;-44
2024/01/31 09:52:06;;;;;;;5.05;2.03;;;5.60;99.90;;;;;;5060590;28;20162;-43
2024/01/31 09:54:31;;;;;;;5.43;2.55;;;5.60;99.90;;;;;;5067872;28;20235;-46
2024/01/31 09:56:57;;;;;;;3.97;2.60;;;5.60;99.90;;;;;;5067555;28;20064;-46
2024/01/31 09:59:25;;;;;;;5.40;2.33;;;5.60;99.90;;;;;;5067652;28;20124;-45
2024/01/31 10:01:52;;;;;;;3.33;2.42;;;5.60;99.90;;;;;;5067275;28;20112;-44
2024/01/31 10:04:18;;;;;;;4.90;2.45;;;5.60;99.90;;;;;;5067816;28;20092;-44
2024/01/31 10:06:44;;;;;;;4.57;2.30;;;5.70;99.90;;;;;;5067753;28;20259;-46
2024/01/31 10:09:10;;;;;;;5.13;2.22;;;5.60;99.90;;;;;;5070369;28;20401;-44
2024/01/31 10:11:36;;;;;;;3.00;2.05;;;5.70;99.90;;;;;;5071514;28;20488;-44
2024/01/31 10:14:02;;;;;;;4.50;2.00;;;5.70;99.90;;;;;;5069362;28;20115;-47
2024/01/31 10:16:27;;;;;;;2.83;1.83;;;5.70;99.90;;;;;;5071050;28;20028;-47
2024/01/31 10:18:53;;;;;;;4.47;2.13;;;5.80;99.90;;;;;;5071508;28;20052;-45
2024/01/31 10:21:19;;;;;;;4.05;2.35;;;5.70;99.90;;;;;;5076422;28;20086;-43
2024/01/31 10:24:04;;;;;;;4.75;2.45;;;5.70;99.90;;;;;;5079401;28;20031;-44
2024/01/31 10:26:29;;;;;;;6.13;2.25;;;5.70;99.90;;;;;;5078223;28;20028;-43
2024/01/31 10:28:57;;;;;;;4.28;2.00;;;5.80;99.90;;;;;;5069348;28;20013;-46
2024/01/31 10:31:23;;;;;;;2.40;1.80;;;5.80;99.90;;;;;;5077733;28;20492;-43
2024/01/31 10:33:49;;;;;;;7.38;2.42;;;5.80;99.90;;;;;;5071350;28;20020;-46
2024/01/31 10:36:18;;;;;;;4.15;2.50;;;5.80;99.90;;;;;;5083041;28;20450;-43
2024/01/31 10:38:45;;;;;;;4.80;2.40;;;5.90;99.90;;;;;;5075647;28;20469;-45
2024/01/31 10:41:13;;;;;;;3.60;2.20;;;5.90;99.90;;;;;;5070557;28;20028;-43
2024/01/31 10:43:40;;;;;;;5.85;2.42;;;5.90;99.90;;;;;;5082656;28;20553;-43
2024/01/31 10:46:06;;;;;;;4.75;2.47;;;6.00;99.90;;;;;;5077245;28;20488;-45
2024/01/31 10:48:31;;;;;;;4.88;2.63;;;6.00;99.90;;;;;;5077254;28;20012;-43
2024/01/31 10:51:00;;;;;;;5.57;2.80;;;6.00;99.90;;;;;;5084880;28;20082;-45
2024/01/31 10:53:28;;;;;;;7.18;2.70;;;6.00;99.90;;;;;;5078499;28;20031;-44
2024/01/31 10:55:56;;;;;;;5.25;2.00;;;6.00;99.90;;;;;;5069840;28;20024;-46
2024/01/31 10:58:22;;;;;;;2.95;2.25;;;6.00;99.90;;;;;;5075860;28;20465;-44
2024/01/31 11:00:48;;;;;;;4.15;2.97;;;6.10;99.90;;;;;;5070672;28;20024;-46
2024/01/31 11:03:17;;;;;;;3.00;2.10;;;6.10;99.90;;;;;;5075638;28;20032;-43
2024/01/31 11:05:43;;;;;;;5.75;2.80;;;6.10;99.90;;;;;;5070732;28;20024;-44
2024/01/31 11:08:23;;;;;;;3.95;2.13;;;6.00;99.90;;;;;;5071102;28;20024;-43
2024/01/31 11:10:52;;;;;;;3.78;2.65;;;6.00;99.90;;;;;;5076139;28;20095;-43
2024/01/31 11:13:17;;;;;;;6.55;2.50;;;6.00;99.90;;;;;;5069709;28;20031;-45
2024/01/31 11:15:44;;;;;;;7.13;2.72;;;6.10;99.90;;;;;;5069211;28;20044;-44
2024/01/31 11:18:14;;;;;;;5.35;2.35;;;6.10;99.90;;;;;;5070126;28;20032;-43
2024/01/31 11:20:49;;;;;;;6.60;3.33;;;6.20;99.90;;;;;;5068896;28;20147;-46
2024/01/31 11:23:16;;;;;;;4.75;2.80;;;6.20;99.90;;;;;;5066909;28;20035;-43
2024/01/31 11:25:45;;;;;;;5.97;3.10;;;6.20;99.90;;;;;;5070140;28;20013;-43
2024/01/31 11:28:12;;;;;;;4.45;3.13;;;6.20;99.90;;;;;;5070379;28;20021;-46
2024/01/31 11:30:39;;;;;;;7.13;2.90;;;6.20;99.90;;;;;;5069949;28;20255;-44
2024/01/31 11:33:05;;;;;;;4.15;2.95;;;6.20;99.90;;;;;;5068384;28;20024;-45
2024/01/31 11:35:32;;;;;;;6.45;3.88;;;6.10;99.90;;;;;;5070830;28;20440;-45
2024/01/31 11:37:58;;;;;;;9.07;2.75;;;6.10;99.90;;;;;;5070128;28;20032;-43
2024/01/31 11:40:24;;;;;;;5.82;2.53;;;6.20;99.90;;;;;;5070100;28;20115;-46
2024/01/31 11:42:52;;;;;;;4.40;3.40;;;6.20;99.90;;;;;;5069176;28;20465;-44
2024/01/31 11:45:18;;;;;;;3.20;2.63;;;6.20;99.90;;;;;;5066776;28;20411;-43
2024/01/31 11:47:44;;;;;;;3.50;3.00;;;6.20;99.90;;;;;;5068136;28;20074;-43
2024/01/31 11:50:10;;;;;;;3.55;3.25;;;6.20;99.90;;;;;;5069503;28;20020;-42
2024/01/31 11:52:37;;;;;;;4.15;3.75;;;6.20;99.90;;;;;;5067686;28;20028;-44
2024/01/31 11:55:03;;;;;;;4.15;3.20;;;6.30;99.90;;;;;;5069306;28;20025;-43
2024/01/31 11:57:29;;;;;;;5.03;3.17;;;6.20;99.90;;;;;;5069091;28;20025;-45
2024/01/31 11:59:55;;;;;;;4.07;3.20;;;6.30;99.90;;;;;;5068931;28;20017;-43
2024/01/31 12:02:21;;;;;;;4.20;3.55;;;6.30;99.90;;;;;;5068933;28;20747;-43
2024/01/31 12:04:54;;;;;;;6.28;3.42;;;6.30;99.90;;;;;;5072213;28;20454;-42
2024/01/31 12:07:20;;;;;;;5.75;3.95;;;6.30;99.90;;;;;;5066937;28;20031;-44
2024/01/31 12:09:46;;;;;;;4.13;3.08;;;6.30;99.90;;;;;;5070247;28;20373;-45
2024/01/31 12:12:12;;;;;;;5.30;3.42;;;6.30;99.90;;;;;;5069222;28;20086;-42
2024/01/31 12:14:39;;;;;;;5.55;4.05;;;6.30;99.90;;;;;;5069139;28;20024;-43
2024/01/31 12:17:18;;;;;;;5.72;4.28;;;6.20;99.90;;;;;;5072908;28;20052;-44
2024/01/31 12:19:44;;;;;;;5.30;3.92;;;6.20;99.90;;;;;;5073252;28;20362;-45
2024/01/31 12:22:11;;;;;;;5.95;4.18;;;6.20;99.90;;;;;;5071331;28;20028;-47
2024/01/31 12:24:37;;;;;;;6.60;4.53;;;6.20;99.90;;;;;;5068756;28;20470;-43
2024/01/31 12:27:03;;;;;;;8.25;3.90;;;6.20;99.90;;;;;;5067517;28;20107;-43
2024/01/31 12:29:30;;;;;;;5.60;3.63;;;6.10;99.90;;;;;;5068516;28;20103;-43
2024/01/31 12:31:56;;;;;;;5.18;3.42;;;6.20;99.90;;;;;;5064963;28;20064;-43
2024/01/31 12:34:21;;;;;;;5.72;3.58;;;6.20;99.90;;;;;;5068092;28;20561;-43
2024/01/31 12:36:47;;;;;;;3.40;2.97;;;6.30;99.90;;;;;;5073414;28;20025;-43
2024/01/31 12:39:18;;;;;;;4.15;2.90;;;6.30;99.90;;;;;;5068049;28;20041;-43
2024/01/31 12:41:45;;;;;;;3.85;3.20;;;6.20;99.90;;;;;;5066524;28;20040;-43
2024/01/31 12:44:11;;;;;;;5.30;2.97;;;6.30;99.90;;;;;;5068706;28;20278;-43
2024/01/31 12:46:37;;;;;;;4.68;3.13;;;6.20;99.90;;;;;;5068002;28;20029;-42
2024/01/31 12:49:02;;;;;;;3.58;2.70;;;6.10;99.90;;;;;;5068486;28;20041;-43
2024/01/31 12:51:28;;;;;;;4.80;2.78;;;6.20;99.90;;;;;;5068327;28;20059;-47
2024/01/31 12:53:54;;;;;;;3.95;2.50;;;6.20;99.90;;;;;;5066947;28;20067;-43